Time;durP1;ratioP1;P1;durP2;ratioP2;P2;SDS_P1;SDS_P2;PMS_P1;PMS_P2;Temp;Humidity;BMP_temperature;BMP_pressure;BME280_temperature;BME280_humidity;BME280_pressure;Samples;Min_cycle;Max_cycle;Signal;HPM_P1;HPM_P2
2021/01/15 00:02:20;;;;;;;15.23;10.32;;;27.20;99.90;;;;;;5075683;28;20455;-65
2021/01/15 00:04:47;;;;;;;15.85;8.70;;;27.30;99.90;;;;;;5075665;28;20047;-60
2021/01/15 00:07:15;;;;;;;17.63;9.65;;;27.20;99.90;;;;;;5075485;28;20384;-66
2021/01/15 00:09:42;;;;;;;13.95;9.98;;;27.20;99.90;;;;;;5075570;28;20045;-58
2021/01/15 00:12:12;;;;;;;13.95;10.13;;;27.40;99.90;;;;;;5075360;28;20031;-61
2021/01/15 00:14:39;;;;;;;12.18;8.90;;;27.60;99.90;;;;;;5075299;28;20046;-63
2021/01/15 00:17:07;;;;;;;16.08;9.50;;;28.10;99.90;;;;;;5074733;28;20107;-62
2021/01/15 00:19:35;;;;;;;13.68;9.60;;;28.40;99.90;;;;;;5075312;28;20103;-64
2021/01/15 00:22:02;;;;;;;15.35;8.82;;;28.50;99.90;;;;;;5075306;28;20021;-63
2021/01/15 00:24:29;;;;;;;15.93;8.55;;;28.80;99.90;;;;;;5075331;28;20028;-60
2021/01/15 00:26:57;;;;;;;13.40;8.82;;;29.10;99.90;;;;;;5075046;28;20036;-63
2021/01/15 00:29:24;;;;;;;15.70;8.73;;;29.10;99.90;;;;;;5075230;28;20542;-63
2021/01/15 00:31:51;;;;;;;14.50;7.85;;;29.30;99.90;;;;;;5075182;28;20135;-63
2021/01/15 00:34:20;;;;;;;15.02;10.60;;;29.20;99.90;;;;;;5075502;28;20083;-64
2021/01/15 00:36:48;;;;;;;19.83;11.00;;;28.90;99.90;;;;;;5075205;28;20017;-63
2021/01/15 00:39:16;;;;;;;17.67;10.60;;;28.40;99.90;;;;;;5075082;28;20017;-63
2021/01/15 00:41:46;;;;;;;17.83;10.27;;;28.10;99.90;;;;;;5074885;28;20024;-63
2021/01/15 00:44:14;;;;;;;14.23;10.18;;;28.10;99.90;;;;;;5075159;28;20092;-63
2021/01/15 00:46:45;;;;;;;16.38;10.38;;;27.70;99.90;;;;;;5074934;28;20043;-63
2021/01/15 00:49:15;;;;;;;17.42;11.27;;;27.40;99.90;;;;;;5074954;28;20078;-62
2021/01/15 00:51:50;;;;;;;19.57;10.60;;;27.20;99.90;;;;;;5074878;28;20557;-64
2021/01/15 00:54:18;;;;;;;16.40;10.27;;;27.20;99.90;;;;;;5074852;28;20038;-63
2021/01/15 00:56:45;;;;;;;17.90;9.73;;;27.30;99.90;;;;;;5074917;28;20040;-63
2021/01/15 00:59:12;;;;;;;16.00;9.15;;;27.30;99.90;;;;;;5074837;28;20534;-65
2021/01/15 01:01:40;;;;;;;13.95;10.10;;;27.10;99.90;;;;;;5074698;28;20046;-63
2021/01/15 01:04:08;;;;;;;16.33;9.93;;;27.10;99.90;;;;;;5073262;28;20025;-62
2021/01/15 01:06:35;;;;;;;14.68;9.57;;;27.20;99.90;;;;;;5074677;28;20021;-63
2021/01/15 01:09:03;;;;;;;17.02;10.77;;;27.00;99.90;;;;;;5074493;28;20032;-64
2021/01/15 01:11:32;;;;;;;14.80;10.20;;;26.90;99.90;;;;;;5074567;28;20083;-63
2021/01/15 01:14:01;;;;;;;16.17;10.90;;;26.80;99.90;;;;;;5074504;28;20016;-63
2021/01/15 01:16:28;;;;;;;20.42;10.93;;;26.70;99.90;;;;;;5074181;28;20045;-62
2021/01/15 01:18:56;;;;;;;16.45;10.15;;;26.90;99.90;;;;;;5074364;28;20078;-62
2021/01/15 01:21:25;;;;;;;22.67;11.38;;;26.90;99.90;;;;;;5074762;28;20039;-63
2021/01/15 01:23:53;;;;;;;24.17;10.85;;;27.00;99.90;;;;;;5074482;28;20118;-63
2021/01/15 01:26:20;;;;;;;16.90;9.52;;;27.20;99.90;;;;;;5074244;28;20028;-63
2021/01/15 01:28:48;;;;;;;17.77;9.52;;;27.40;99.90;;;;;;5074112;28;20495;-63
2021/01/15 01:31:17;;;;;;;17.02;9.98;;;27.30;99.90;;;;;;5074053;28;20085;-64
2021/01/15 01:33:46;;;;;;;13.35;10.07;;;27.60;99.90;;;;;;5074076;28;20499;-66
2021/01/15 01:36:13;;;;;;;16.92;10.15;;;27.60;99.90;;;;;;5073986;28;20190;-64
2021/01/15 01:38:42;;;;;;;12.68;9.60;;;27.40;99.90;;;;;;5073998;28;20107;-65
2021/01/15 01:41:10;;;;;;;18.40;10.35;;;27.40;99.90;;;;;;5074069;28;20043;-64
2021/01/15 01:43:38;;;;;;;16.52;9.63;;;27.40;99.90;;;;;;5073710;28;20032;-65
2021/01/15 01:46:09;;;;;;;18.33;9.93;;;27.40;99.90;;;;;;5074421;28;20430;-65
2021/01/15 01:48:38;;;;;;;14.77;9.55;;;27.50;99.90;;;;;;5073621;28;20063;-65
2021/01/15 01:51:06;;;;;;;15.43;9.95;;;27.50;99.90;;;;;;5073699;28;20095;-65
2021/01/15 01:53:37;;;;;;;13.82;10.07;;;27.50;99.90;;;;;;5073452;28;20028;-67
2021/01/15 01:56:08;;;;;;;17.30;9.48;;;27.60;99.90;;;;;;5073409;28;20024;-67
2021/01/15 01:58:36;;;;;;;16.10;10.45;;;27.60;99.90;;;;;;5073476;28;20032;-63
2021/01/15 02:01:05;;;;;;;15.88;10.70;;;27.30;99.90;;;;;;5073471;28;20478;-64
2021/01/15 02:03:33;;;;;;;15.18;10.32;;;27.20;99.90;;;;;;5073378;28;20131;-63
2021/01/15 02:06:00;;;;;;;13.93;10.35;;;27.50;99.90;;;;;;5073391;28;20387;-64
2021/01/15 02:08:29;;;;;;;16.38;9.98;;;27.70;99.90;;;;;;5073440;28;20021;-64
2021/01/15 02:11:29;;;;;;;13.40;9.55;;;27.90;99.90;;;;;;5073131;28;20492;-64
2021/01/15 02:14:07;;;;;;;;;;;27.70;99.90;;;;;;5073675;28;20069;-64
2021/01/15 02:16:35;;;;;;;17.25;9.95;;;27.50;99.90;;;;;;5071742;28;20046;-64
2021/01/15 02:19:33;;;;;;;19.05;9.77;;;27.60;99.90;;;;;;5073187;28;20040;-64
2021/01/15 02:22:27;;;;;;;18.55;10.30;;;27.70;99.90;;;;;;5073176;28;20035;-65
2021/01/15 02:25:00;;;;;;;20.55;10.93;;;27.40;99.90;;;;;;5073062;28;20432;-66
2021/01/15 02:28:03;;;;;;;17.85;10.50;;;27.30;99.90;;;;;;5072982;28;20032;-66
2021/01/15 02:31:03;;;;;;;15.75;10.77;;;27.00;99.90;;;;;;5072950;28;20074;-64
2021/01/15 02:33:41;;;;;;;17.85;9.85;;;27.10;99.90;;;;;;5073025;28;20492;-64
2021/01/15 02:36:24;;;;;;;14.95;9.27;;;27.30;99.90;;;;;;5072917;28;20024;-64
2021/01/15 02:39:01;;;;;;;15.95;10.43;;;27.50;99.90;;;;;;5072767;28;20040;-65
2021/01/15 02:41:31;;;;;;;15.15;9.70;;;27.40;99.90;;;;;;5072354;28;20122;-64
2021/01/15 02:44:12;;;;;;;17.55;9.93;;;27.30;99.90;;;;;;5072780;28;20103;-64
2021/01/15 02:46:57;;;;;;;19.48;10.27;;;27.10;99.90;;;;;;5072774;28;20031;-64
2021/01/15 02:49:26;;;;;;;18.85;11.63;;;27.30;99.90;;;;;;5072849;28;20039;-64
2021/01/15 02:51:54;;;;;;;14.20;10.77;;;27.50;99.90;;;;;;5072766;28;20016;-64
2021/01/15 02:54:23;;;;;;;15.27;10.98;;;27.80;99.90;;;;;;5072669;28;20089;-64
2021/01/15 02:56:50;;;;;;;17.77;10.93;;;27.90;99.90;;;;;;5072817;28;20021;-67
2021/01/15 02:59:17;;;;;;;18.10;10.95;;;27.90;99.90;;;;;;5073022;28;20484;-67
2021/01/15 03:01:54;;;;;;;16.13;10.48;;;27.80;99.90;;;;;;5072650;28;20025;-63
2021/01/15 03:04:24;;;;;;;16.42;9.35;;;27.80;99.90;;;;;;5072573;28;20070;-64
2021/01/15 03:06:57;;;;;;;12.73;10.20;;;27.50;99.90;;;;;;5072771;28;20016;-69
2021/01/15 03:09:31;;;;;;;15.18;10.98;;;27.30;99.90;;;;;;5072731;28;20078;-70
2021/01/15 03:12:00;;;;;;;18.88;10.82;;;26.80;99.90;;;;;;5072932;28;20017;-66
2021/01/15 03:14:30;;;;;;;13.38;10.88;;;26.90;99.90;;;;;;5072520;28;20017;-70
2021/01/15 03:16:58;;;;;;;15.38;10.57;;;26.80;99.90;;;;;;5072677;28;20481;-67
2021/01/15 03:19:26;;;;;;;17.98;10.43;;;26.60;99.90;;;;;;5072674;28;20457;-67
2021/01/15 03:21:53;;;;;;;20.45;10.55;;;26.70;99.90;;;;;;5072796;28;20017;-67
2021/01/15 03:24:21;;;;;;;17.65;10.93;;;26.80;99.90;;;;;;5072628;28;20087;-66
2021/01/15 03:26:48;;;;;;;16.63;11.32;;;27.00;99.90;;;;;;5072468;28;20107;-72
2021/01/15 03:29:15;;;;;;;19.15;11.73;;;27.10;99.90;;;;;;5072494;28;20032;-69
2021/01/15 03:31:43;;;;;;;19.25;11.27;;;27.00;99.90;;;;;;5072541;28;20017;-70
2021/01/15 03:34:11;;;;;;;14.02;11.45;;;26.80;99.90;;;;;;5072464;28;20334;-70
2021/01/15 03:36:38;;;;;;;14.50;11.95;;;26.50;99.90;;;;;;5072431;28;20016;-70
2021/01/15 03:39:05;;;;;;;18.15;11.98;;;26.40;99.90;;;;;;5072472;28;20078;-68
2021/01/15 03:41:33;;;;;;;15.80;12.15;;;26.20;99.90;;;;;;5072373;28;20054;-69
2021/01/15 03:44:00;;;;;;;14.00;11.57;;;26.20;99.90;;;;;;5072469;28;20024;-70
2021/01/15 03:46:27;;;;;;;14.65;11.52;;;26.10;99.90;;;;;;5072353;28;20024;-69
2021/01/15 03:48:55;;;;;;;16.10;11.57;;;26.20;99.90;;;;;;5071020;28;20028;-65
2021/01/15 03:51:22;;;;;;;18.13;11.13;;;26.20;99.90;;;;;;5072360;28;20027;-66
2021/01/15 03:53:49;;;;;;;15.75;11.95;;;26.20;99.90;;;;;;5074673;28;20024;-68
2021/01/15 03:56:17;;;;;;;14.98;12.18;;;26.40;99.90;;;;;;5075779;28;20031;-67
2021/01/15 03:58:45;;;;;;;14.18;11.32;;;26.40;99.90;;;;;;5075650;28;20024;-66
2021/01/15 04:01:12;;;;;;;18.17;11.52;;;26.50;99.90;;;;;;5075733;28;20070;-66
2021/01/15 04:03:39;;;;;;;14.75;12.60;;;26.40;99.90;;;;;;5075533;28;20056;-66
2021/01/15 04:06:07;;;;;;;13.23;11.13;;;26.50;99.90;;;;;;5074224;28;20392;-64
2021/01/15 04:08:34;;;;;;;15.38;11.75;;;26.50;99.90;;;;;;5075414;28;20029;-69
2021/01/15 04:11:02;;;;;;;13.30;11.40;;;26.60;99.90;;;;;;5075363;28;20103;-69
2021/01/15 04:13:30;;;;;;;17.27;12.45;;;26.60;99.90;;;;;;5075352;28;20025;-69
2021/01/15 04:15:57;;;;;;;17.00;11.75;;;26.50;99.90;;;;;;5073882;28;20049;-70
2021/01/15 04:18:24;;;;;;;14.43;11.70;;;26.60;99.90;;;;;;5075071;28;20028;-68
2021/01/15 04:20:51;;;;;;;17.20;12.55;;;26.50;99.90;;;;;;5075177;28;20025;-69
2021/01/15 04:23:19;;;;;;;12.50;11.07;;;26.70;99.90;;;;;;5075264;28;20016;-68
2021/01/15 04:25:46;;;;;;;17.02;12.48;;;26.70;99.90;;;;;;5075196;28;20027;-66
2021/01/15 04:28:13;;;;;;;14.70;13.18;;;26.70;99.90;;;;;;5075186;28;20024;-68
2021/01/15 04:30:41;;;;;;;16.48;13.07;;;26.70;99.90;;;;;;5075077;28;20433;-66
2021/01/15 04:33:08;;;;;;;12.95;11.60;;;26.80;99.90;;;;;;5075065;28;20476;-70
2021/01/15 04:35:35;;;;;;;14.35;12.00;;;27.10;99.90;;;;;;5075373;28;20377;-70
2021/01/15 04:38:03;;;;;;;16.20;12.57;;;27.40;99.90;;;;;;5075021;28;20495;-64
2021/01/15 04:40:30;;;;;;;13.93;11.60;;;27.60;99.90;;;;;;5074999;28;20052;-65
2021/01/15 04:43:01;;;;;;;15.65;13.30;;;27.90;99.90;;;;;;5074970;28;20017;-64
2021/01/15 04:45:29;;;;;;;15.70;12.45;;;28.00;99.90;;;;;;5074850;28;20104;-64
2021/01/15 04:47:57;;;;;;;13.23;12.02;;;28.20;99.90;;;;;;5074687;28;20070;-64
2021/01/15 04:50:26;;;;;;;11.88;10.73;;;28.30;99.90;;;;;;5074739;28;20465;-64
2021/01/15 04:52:54;;;;;;;13.93;11.23;;;28.70;99.90;;;;;;5074742;28;20025;-64
2021/01/15 04:55:25;;;;;;;14.45;11.48;;;28.90;99.90;;;;;;5074606;28;20306;-64
2021/01/15 04:57:56;;;;;;;14.13;10.48;;;28.80;99.90;;;;;;5074577;28;20127;-65
2021/01/15 05:00:25;;;;;;;12.23;10.10;;;28.50;99.90;;;;;;5074615;28;20099;-64
2021/01/15 05:02:53;;;;;;;13.02;11.55;;;28.40;99.90;;;;;;5074538;28;20031;-64
2021/01/15 05:05:27;;;;;;;13.15;11.75;;;28.30;99.90;;;;;;5074141;28;20064;-64
2021/01/15 05:08:25;;;;;;;15.43;11.93;;;28.40;99.90;;;;;;5074467;28;20471;-64
2021/01/15 05:10:53;;;;;;;13.52;12.18;;;28.80;99.90;;;;;;5068808;28;20035;-65
2021/01/15 05:13:20;;;;;;;15.10;11.95;;;28.90;99.90;;;;;;5074335;28;20468;-64
2021/01/15 05:15:50;;;;;;;13.25;10.30;;;29.00;99.90;;;;;;5074275;28;20033;-65
2021/01/15 05:18:19;;;;;;;13.23;12.18;;;29.10;99.90;;;;;;5074268;28;20020;-64
2021/01/15 05:20:47;;;;;;;13.07;11.82;;;28.90;99.90;;;;;;5074246;28;20056;-64
2021/01/15 05:23:17;;;;;;;18.25;12.07;;;28.80;99.90;;;;;;5074191;28;20358;-64
2021/01/15 05:25:46;;;;;;;13.40;11.00;;;28.90;99.90;;;;;;5074021;28;20511;-63
2021/01/15 05:28:16;;;;;;;14.27;11.80;;;28.50;99.90;;;;;;5073823;28;20273;-64
2021/01/15 05:30:44;;;;;;;14.10;10.52;;;28.30;99.90;;;;;;5074493;28;20253;-70
2021/01/15 05:33:17;;;;;;;12.50;11.38;;;28.30;99.90;;;;;;5074022;28;20048;-70
2021/01/15 05:35:52;;;;;;;15.32;11.57;;;28.40;99.90;;;;;;5073843;28;20532;-70
2021/01/15 05:38:21;;;;;;;12.20;10.95;;;28.10;99.90;;;;;;5073988;28;20037;-69
2021/01/15 05:40:50;;;;;;;14.35;12.48;;;28.10;99.90;;;;;;5073832;28;20016;-70
2021/01/15 05:43:32;;;;;;;14.50;13.05;;;27.90;99.90;;;;;;5073650;28;20451;-68
2021/01/15 05:46:17;;;;;;;13.25;11.73;;;27.80;99.90;;;;;;5073629;28;20385;-69
2021/01/15 05:48:48;;;;;;;15.48;13.32;;;27.90;99.90;;;;;;5073468;28;20461;-69
2021/01/15 05:51:36;;;;;;;17.48;12.75;;;28.00;99.90;;;;;;5073631;28;20017;-69
2021/01/15 05:54:05;;;;;;;16.00;12.38;;;28.20;99.90;;;;;;5073546;28;20381;-69
2021/01/15 05:56:41;;;;;;;15.00;13.33;;;28.30;99.90;;;;;;5073518;28;20059;-69
2021/01/15 05:59:09;;;;;;;16.05;13.73;;;28.20;99.90;;;;;;5073395;28;20024;-69
2021/01/15 06:01:51;;;;;;;15.00;13.25;;;28.00;99.90;;;;;;5073541;28;20063;-70
2021/01/15 06:04:40;;;;;;;16.02;13.85;;;28.20;99.90;;;;;;5073490;28;20030;-68
2021/01/15 06:07:11;;;;;;;18.27;14.32;;;28.30;99.90;;;;;;5073545;28;20112;-68
2021/01/15 06:09:43;;;;;;;13.75;12.43;;;28.40;99.90;;;;;;5073412;28;20103;-68
2021/01/15 06:12:20;;;;;;;17.27;14.00;;;28.60;99.90;;;;;;5073559;28;20012;-70
2021/01/15 06:14:56;;;;;;;17.02;14.05;;;28.70;99.90;;;;;;5072951;28;20546;-66
2021/01/15 06:17:25;;;;;;;14.75;13.02;;;28.40;99.90;;;;;;5073075;28;20020;-69
2021/01/15 06:20:06;;;;;;;15.75;12.38;;;28.80;99.90;;;;;;5073297;28;20429;-70
2021/01/15 06:22:44;;;;;;;16.63;13.50;;;29.00;99.90;;;;;;5073388;28;20028;-69
2021/01/15 06:25:23;;;;;;;15.15;13.77;;;28.40;99.90;;;;;;5073877;28;20173;-69
2021/01/15 06:27:55;;;;;;;15.40;12.82;;;28.20;99.90;;;;;;5072978;28;20024;-68
2021/01/15 06:30:28;;;;;;;15.35;13.85;;;28.10;99.90;;;;;;5073176;28;20020;-66
2021/01/15 06:33:16;;;;;;;17.30;15.18;;;28.30;99.90;;;;;;5073279;28;20016;-70
2021/01/15 06:35:47;;;;;;;16.98;14.32;;;28.30;99.90;;;;;;5072739;28;20089;-64
2021/01/15 06:38:17;;;;;;;16.98;14.55;;;28.20;99.90;;;;;;5073156;28;20024;-71
2021/01/15 06:40:49;;;;;;;16.48;14.82;;;28.60;99.90;;;;;;5073329;28;20032;-70
2021/01/15 06:43:33;;;;;;;18.88;17.02;;;29.00;99.90;;;;;;5073109;28;20391;-70
2021/01/15 06:46:03;;;;;;;20.35;16.52;;;29.20;99.90;;;;;;5073080;28;20042;-69
2021/01/15 06:48:35;;;;;;;18.83;16.75;;;28.90;99.90;;;;;;5073014;28;20021;-70
2021/01/15 06:51:04;;;;;;;18.15;16.50;;;28.90;99.90;;;;;;5071665;28;20032;-70
2021/01/15 06:53:32;;;;;;;19.00;17.15;;;28.90;99.90;;;;;;5073119;28;20048;-70
2021/01/15 06:56:01;;;;;;;19.40;17.50;;;28.90;99.90;;;;;;5073160;28;20099;-69
2021/01/15 06:58:39;;;;;;;19.75;17.65;;;29.00;99.90;;;;;;5072916;28;20033;-70
2021/01/15 07:01:18;;;;;;;18.90;16.98;;;29.20;99.90;;;;;;5073159;28;20029;-70
2021/01/15 07:04:29;;;;;;;18.25;16.35;;;29.70;99.90;;;;;;5072930;28;20089;-70
2021/01/15 07:07:00;;;;;;;19.30;17.35;;;29.70;99.90;;;;;;5069977;28;20032;-70
2021/01/15 07:09:28;;;;;;;19.10;17.08;;;29.90;99.90;;;;;;5072728;28;20095;-70
2021/01/15 07:12:03;;;;;;;19.05;17.25;;;30.10;99.90;;;;;;5072518;28;20048;-69
2021/01/15 07:14:45;;;;;;;19.00;17.23;;;29.60;99.90;;;;;;5072495;28;20024;-70
2021/01/15 07:17:37;;;;;;;18.60;16.90;;;30.00;99.90;;;;;;5072587;28;20028;-69
2021/01/15 07:20:11;;;;;;;18.25;16.50;;;30.30;99.90;;;;;;5072165;28;20036;-68
2021/01/15 07:22:59;;;;;;;17.58;15.75;;;30.20;99.90;;;;;;5072537;28;20021;-68
2021/01/15 07:25:27;;;;;;;19.10;17.10;;;29.30;99.90;;;;;;5072483;28;20491;-68
2021/01/15 07:27:55;;;;;;;18.25;16.52;;;28.60;99.90;;;;;;5075134;28;20031;-68
2021/01/15 07:30:28;;;;;;;20.80;18.60;;;28.10;99.90;;;;;;5076165;28;20465;-68
2021/01/15 07:32:58;;;;;;;19.45;17.45;;;27.80;99.90;;;;;;5076316;28;20038;-69
2021/01/15 07:35:27;;;;;;;19.17;17.15;;;27.50;99.90;;;;;;5076222;28;20385;-70
2021/01/15 07:38:10;;;;;;;19.50;17.48;;;27.30;99.90;;;;;;5076004;28;20032;-70
2021/01/15 07:40:39;;;;;;;19.70;17.80;;;27.20;99.90;;;;;;5076257;28;20039;-69
2021/01/15 07:43:26;;;;;;;20.20;17.50;;;27.20;99.90;;;;;;5075985;28;20388;-70
2021/01/15 07:45:54;;;;;;;18.70;16.80;;;27.20;99.90;;;;;;5076048;28;20050;-68
2021/01/15 07:48:21;;;;;;;22.20;18.70;;;26.90;99.90;;;;;;5075985;28;20024;-69
2021/01/15 07:50:50;;;;;;;21.23;19.08;;;26.70;99.90;;;;;;5075881;28;20017;-69
2021/01/15 07:53:22;;;;;;;22.38;18.00;;;26.70;99.90;;;;;;5075709;28;20016;-69
2021/01/15 07:55:55;;;;;;;20.73;18.52;;;26.50;99.90;;;;;;5075757;28;20387;-69
2021/01/15 07:58:24;;;;;;;20.83;18.73;;;26.50;99.90;;;;;;5075805;28;20028;-69
2021/01/15 08:00:52;;;;;;;21.57;18.60;;;26.50;99.90;;;;;;5075791;28;20051;-69
2021/01/15 08:03:21;;;;;;;19.63;17.70;;;26.60;99.90;;;;;;5075690;28;20025;-69
2021/01/15 08:05:57;;;;;;;21.05;18.80;;;26.50;99.90;;;;;;5075510;28;20504;-69
2021/01/15 08:08:24;;;;;;;23.10;18.30;;;26.50;99.90;;;;;;5075491;28;20020;-69
2021/01/15 08:10:52;;;;;;;21.38;17.45;;;26.50;99.90;;;;;;5075503;28;20400;-69
2021/01/15 08:13:19;;;;;;;21.98;17.95;;;26.80;99.90;;;;;;5075537;28;20357;-69
2021/01/15 08:15:47;;;;;;;19.98;17.35;;;26.80;99.90;;;;;;5075214;28;20049;-70
2021/01/15 08:18:15;;;;;;;23.35;18.50;;;26.50;99.90;;;;;;5075312;28;20020;-68
2021/01/15 08:20:50;;;;;;;23.58;19.60;;;26.10;99.90;;;;;;5075270;28;20361;-68
2021/01/15 08:23:22;;;;;;;22.30;18.80;;;25.80;99.90;;;;;;5075282;28;20020;-67
2021/01/15 08:26:26;;;;;;;21.35;19.08;;;25.60;99.90;;;;;;5075273;28;20035;-68
2021/01/15 08:28:54;;;;;;;21.67;19.27;;;25.60;99.90;;;;;;5072098;28;20082;-69
2021/01/15 08:31:25;;;;;;;21.92;19.58;;;25.50;99.90;;;;;;5073848;28;20031;-71
2021/01/15 08:34:11;;;;;;;23.90;19.55;;;25.30;99.90;;;;;;5075020;28;20116;-68
2021/01/15 08:36:46;;;;;;;22.50;19.77;;;25.30;99.90;;;;;;5075047;28;20070;-67
2021/01/15 08:39:14;;;;;;;22.58;20.27;;;25.20;99.90;;;;;;5074254;28;20498;-69
2021/01/15 08:41:42;;;;;;;24.52;21.85;;;25.20;99.90;;;;;;5074884;28;20362;-69
2021/01/15 08:44:14;;;;;;;25.98;20.20;;;25.10;99.90;;;;;;5074808;28;20111;-70
2021/01/15 08:46:42;;;;;;;23.58;21.30;;;25.10;99.90;;;;;;5074848;28;20051;-67
2021/01/15 08:49:10;;;;;;;23.13;20.77;;;25.00;99.90;;;;;;5073375;28;20086;-68
2021/01/15 08:51:41;;;;;;;22.35;20.13;;;24.90;99.90;;;;;;5074734;28;20035;-71
2021/01/15 08:54:11;;;;;;;21.58;19.33;;;24.80;99.90;;;;;;5074800;28;20021;-70
2021/01/15 08:56:44;;;;;;;22.13;19.80;;;24.80;99.90;;;;;;5074654;28;20025;-69
2021/01/15 08:59:13;;;;;;;24.83;20.02;;;24.70;99.90;;;;;;5074636;28;20459;-67
2021/01/15 09:01:43;;;;;;;25.85;20.42;;;24.70;99.90;;;;;;5074702;28;20029;-66
2021/01/15 09:04:13;;;;;;;26.58;22.55;;;24.60;99.90;;;;;;5074646;28;20058;-68
2021/01/15 09:06:42;;;;;;;25.52;21.92;;;24.60;99.90;;;;;;5074570;28;20047;-67
2021/01/15 09:09:13;;;;;;;25.17;21.23;;;24.50;99.90;;;;;;5074431;28;20396;-67
2021/01/15 09:11:41;;;;;;;25.10;21.83;;;24.50;99.90;;;;;;5074671;28;20025;-68
2021/01/15 09:14:12;;;;;;;24.45;21.88;;;24.50;99.90;;;;;;5074425;28;20020;-68
2021/01/15 09:16:43;;;;;;;23.88;21.38;;;24.50;99.90;;;;;;5074243;28;20041;-68
2021/01/15 09:19:15;;;;;;;24.98;21.02;;;24.50;99.90;;;;;;5074410;28;20024;-68
2021/01/15 09:21:56;;;;;;;24.42;21.90;;;24.40;99.90;;;;;;5074727;28;20380;-69
2021/01/15 09:24:24;;;;;;;29.05;22.48;;;24.30;99.90;;;;;;5074297;28;20108;-68
2021/01/15 09:26:59;;;;;;;26.27;21.60;;;24.30;99.90;;;;;;5074069;28;20032;-67
2021/01/15 09:29:27;;;;;;;30.98;23.33;;;24.20;99.90;;;;;;5073983;28;20500;-68
2021/01/15 09:31:55;;;;;;;24.35;21.80;;;24.20;99.90;;;;;;5074105;28;20025;-68
2021/01/15 09:34:24;;;;;;;26.48;23.33;;;24.10;99.90;;;;;;5073994;28;20532;-68
2021/01/15 09:36:52;;;;;;;27.02;24.17;;;24.10;99.90;;;;;;5074129;28;20020;-68
2021/01/15 09:39:23;;;;;;;29.63;24.52;;;24.20;99.90;;;;;;5073938;28;20421;-69
2021/01/15 09:41:57;;;;;;;26.35;23.52;;;24.10;99.90;;;;;;5073825;28;20025;-69
2021/01/15 09:44:28;;;;;;;28.27;24.73;;;24.10;99.90;;;;;;5073659;28;20048;-69
2021/01/15 09:47:00;;;;;;;27.05;23.13;;;24.10;99.90;;;;;;5073715;28;20384;-68
2021/01/15 09:49:29;;;;;;;28.33;24.00;;;24.00;99.90;;;;;;5073799;28;20032;-67
2021/01/15 09:51:56;;;;;;;32.53;24.77;;;23.90;99.90;;;;;;5073483;28;20067;-68
2021/01/15 09:54:26;;;;;;;26.00;23.25;;;23.90;99.90;;;;;;5073624;28;20027;-67
2021/01/15 09:56:53;;;;;;;26.88;23.98;;;23.90;99.90;;;;;;5073675;28;20052;-69
2021/01/15 09:59:21;;;;;;;27.27;24.40;;;23.80;99.90;;;;;;5073635;28;20032;-67
2021/01/15 10:01:48;;;;;;;26.80;24.13;;;23.80;99.90;;;;;;5073554;28;20028;-68
2021/01/15 10:04:16;;;;;;;25.73;23.20;;;23.80;99.90;;;;;;5073921;28;20058;-68
2021/01/15 10:06:47;;;;;;;29.50;24.02;;;23.80;99.90;;;;;;5073378;28;20028;-67
2021/01/15 10:09:16;;;;;;;32.72;25.95;;;23.70;99.90;;;;;;5073378;28;20097;-67
2021/01/15 10:11:46;;;;;;;28.38;25.42;;;23.60;99.90;;;;;;5073434;28;20036;-69
2021/01/15 10:14:15;;;;;;;30.02;25.90;;;23.50;99.90;;;;;;5073561;28;20377;-69
2021/01/15 10:16:49;;;;;;;27.20;24.40;;;23.50;99.90;;;;;;5073259;28;20098;-68
2021/01/15 10:19:18;;;;;;;30.25;26.65;;;23.40;99.90;;;;;;5073022;28;20311;-69
2021/01/15 10:21:48;;;;;;;28.38;25.42;;;23.30;99.90;;;;;;5072760;28;20066;-68
2021/01/15 10:24:16;;;;;;;31.75;26.33;;;23.30;99.90;;;;;;5072683;28;20029;-68
2021/01/15 10:26:44;;;;;;;33.10;28.05;;;23.20;99.90;;;;;;5072630;28;20074;-69
2021/01/15 10:29:13;;;;;;;30.48;27.17;;;23.20;99.90;;;;;;5073042;28;20056;-68
2021/01/15 10:31:50;;;;;;;30.40;27.23;;;23.10;99.90;;;;;;5073192;28;20031;-69
2021/01/15 10:34:17;;;;;;;33.40;28.90;;;23.10;99.90;;;;;;5073171;28;20024;-69
2021/01/15 10:36:46;;;;;;;32.58;28.98;;;23.00;99.90;;;;;;5073109;28;20024;-68
2021/01/15 10:39:14;;;;;;;31.17;27.98;;;22.90;99.90;;;;;;5073068;28;20024;-70
2021/01/15 10:41:47;;;;;;;32.00;28.70;;;22.90;99.90;;;;;;5073115;28;20055;-68
2021/01/15 10:44:16;;;;;;;36.13;30.13;;;22.90;99.90;;;;;;5073269;28;20033;-70
2021/01/15 10:46:47;;;;;;;31.48;27.98;;;22.80;99.90;;;;;;5073085;28;20048;-69
2021/01/15 10:49:19;;;;;;;31.77;28.70;;;22.80;99.90;;;;;;5072991;28;20100;-68
2021/01/15 10:51:55;;;;;;;35.83;29.67;;;22.70;99.90;;;;;;5072968;28;20047;-68
2021/01/15 10:54:23;;;;;;;34.83;29.75;;;22.70;99.90;;;;;;5072880;28;20038;-69
2021/01/15 10:56:52;;;;;;;32.83;29.33;;;22.70;99.90;;;;;;5072836;28;20489;-67
2021/01/15 10:59:21;;;;;;;33.58;29.45;;;22.60;99.90;;;;;;5072812;28;20024;-66
2021/01/15 11:01:52;;;;;;;32.55;29.17;;;22.70;99.90;;;;;;5073944;28;20073;-69
2021/01/15 11:04:20;;;;;;;34.13;30.55;;;22.70;99.90;;;;;;5077174;28;20028;-69
2021/01/15 11:06:57;;;;;;;34.63;30.80;;;22.70;99.90;;;;;;5077048;28;20028;-68
2021/01/15 11:09:25;;;;;;;32.90;29.60;;;22.70;99.90;;;;;;5076552;28;20020;-68
2021/01/15 11:11:56;;;;;;;39.95;32.50;;;22.60;99.90;;;;;;5076545;28;20021;-69
2021/01/15 11:14:24;;;;;;;33.90;30.38;;;22.60;99.90;;;;;;5076479;28;20505;-69
2021/01/15 11:16:52;;;;;;;34.55;31.13;;;22.60;99.90;;;;;;5076369;28;20052;-69
2021/01/15 11:19:19;;;;;;;32.38;28.98;;;22.70;99.90;;;;;;5076538;28;20103;-68
2021/01/15 11:21:47;;;;;;;24.40;21.80;;;22.70;99.90;;;;;;5076165;28;20082;-67
2021/01/15 11:24:14;;;;;;;22.60;20.33;;;22.80;99.90;;;;;;5076255;28;20032;-68
2021/01/15 11:26:41;;;;;;;20.33;17.58;;;22.90;99.90;;;;;;5076438;28;20067;-69
2021/01/15 11:29:10;;;;;;;19.17;17.27;;;23.10;99.90;;;;;;5076230;28;20444;-70
2021/01/15 11:31:39;;;;;;;19.55;17.33;;;23.30;99.90;;;;;;5076292;28;20025;-69
2021/01/15 11:34:07;;;;;;;18.98;17.02;;;23.50;99.90;;;;;;5076289;28;20438;-69
2021/01/15 11:36:34;;;;;;;20.35;18.45;;;23.50;99.90;;;;;;5076384;28;20016;-68
2021/01/15 11:39:04;;;;;;;20.58;18.67;;;23.50;99.90;;;;;;5076183;28;20107;-69
2021/01/15 11:41:32;;;;;;;23.73;20.38;;;23.70;99.90;;;;;;5076523;28;20380;-69
2021/01/15 11:43:59;;;;;;;23.95;21.45;;;23.60;99.90;;;;;;5076094;28;20173;-70
2021/01/15 11:46:26;;;;;;;27.35;24.20;;;23.70;99.90;;;;;;5076070;28;20111;-70
2021/01/15 11:48:54;;;;;;;25.77;23.05;;;23.60;99.90;;;;;;5076044;28;20449;-69
2021/01/15 11:51:21;;;;;;;29.42;26.23;;;23.50;99.90;;;;;;5076015;28;20103;-69
2021/01/15 11:53:49;;;;;;;29.33;26.50;;;23.40;99.90;;;;;;5075965;28;20016;-68
2021/01/15 11:56:19;;;;;;;30.85;27.30;;;23.40;99.90;;;;;;5075995;28;20028;-68
2021/01/15 11:58:46;;;;;;;;;;;23.30;99.90;;;;;;5076588;28;20059;-68
2021/01/15 12:01:15;;;;;;;28.05;25.23;;;23.20;99.90;;;;;;5075988;28;19904;-68
2021/01/15 12:03:42;;;;;;;26.27;23.58;;;23.20;99.90;;;;;;5075807;28;20433;-68
2021/01/15 12:06:12;;;;;;;25.52;22.65;;;23.30;99.90;;;;;;5075723;28;20028;-69
2021/01/15 12:08:42;;;;;;;21.83;18.75;;;23.30;99.90;;;;;;5075623;28;20021;-68
2021/01/15 12:11:09;;;;;;;20.73;15.50;;;23.30;99.90;;;;;;5075677;28;20024;-68
2021/01/15 12:13:37;;;;;;;14.20;12.93;;;23.30;99.90;;;;;;5074444;28;20108;-68
2021/01/15 12:16:04;;;;;;;16.42;13.27;;;23.40;99.90;;;;;;5075425;28;20173;-68
2021/01/15 12:18:31;;;;;;;15.10;12.00;;;23.60;99.90;;;;;;5075531;28;20021;-69
2021/01/15 12:20:59;;;;;;;11.70;9.05;;;23.50;99.90;;;;;;5075599;28;20028;-69
2021/01/15 12:23:26;;;;;;;12.40;6.70;;;23.60;99.90;;;;;;5075581;28;20378;-69
2021/01/15 12:25:53;;;;;;;9.98;6.60;;;23.70;97.50;;;;;;5075385;28;20020;-68
2021/01/15 12:28:21;;;;;;;8.60;5.55;;;23.70;94.70;;;;;;5075400;28;20020;-68
2021/01/15 12:30:52;;;;;;;7.60;6.13;;;23.80;92.00;;;;;;5075488;28;20047;-67
2021/01/15 12:33:21;;;;;;;6.90;6.20;;;23.90;91.80;;;;;;5075337;28;20020;-68
2021/01/15 12:35:50;;;;;;;9.38;5.80;;;23.90;90.50;;;;;;5073947;28;20110;-68
2021/01/15 12:38:20;;;;;;;7.05;4.80;;;23.90;86.90;;;;;;5075295;28;20021;-66
2021/01/15 12:40:47;;;;;;;6.10;5.50;;;23.90;87.50;;;;;;5075215;28;20039;-70
2021/01/15 12:43:15;;;;;;;7.40;5.25;;;23.80;86.10;;;;;;5075016;28;20408;-69
2021/01/15 12:45:50;;;;;;;8.35;5.25;;;23.80;85.00;;;;;;5075090;28;20024;-68
2021/01/15 12:48:18;;;;;;;8.85;5.35;;;23.70;86.70;;;;;;5074860;28;20445;-68